Latest Coastal Weather Observations for Maria Island

IDT60701

Issued at 8:35 pm EST Thursday 24 July 2014 (issued every 10 minutes, with the page automatically refreshed every 10 minutes)

About coastal observations | Map of coastal stations | Coastal observations for TAS | Marine services | Other Formats
Station Details ID: 092124 Name: MARIA ISLAND (POINT LESUEUR) Lat: -42.66 Lon: 148.02 Height: 28.0 m
Data from the previous 72 hours. | See also: Recent months at Maria Island
Date/Time
EST
Temp

°C
Wind Pressure Rain
since 9am
mm
Weather Cloud Vis
km
Sea
Height
m
Swell
Dir
 
Speed
knots
Gust
knots
hPa Trend Height
m
Period
s
Dir
24/08:30pm 10.3 NE 0 0 1018.5 - 0.0 - - - - - - -
24/08:00pm 10.2 CALM 0 0 1018.5 - 0.0 - - - - - - -
24/07:30pm 10.4 CALM 0 0 1018.4 - 0.0 - - - - - - -
24/07:00pm 10.4 CALM 0 0 1018.2 - 0.0 - - - - - - -
24/06:30pm 10.7 NW 2 2 1018.1 - 0.0 - - - - - - -
24/06:00pm 10.5 W 3 4 1018.1 - 0.0 - - - - - - -
24/05:30pm 11.0 NNE 3 4 1018.0 - 0.0 - - - - - - -
24/05:00pm 11.2 NE 4 6 1017.9 - 0.0 - - - - - - -
24/04:30pm 11.5 N 6 8 1017.8 - 0.0 - - - - - - -
24/04:00pm 11.3 NNW 8 9 1017.7 - 0.0 - - - - - - -
24/03:30pm 11.4 N 10 11 1017.5 - 0.0 - - - - - - -
24/03:00pm 11.6 N 8 9 1017.6 - 0.0 - - - - - - -
24/02:30pm 11.8 N 7 8 1017.7 - 0.0 - - - - - - -
24/02:00pm 11.9 N 8 9 1017.8 - 0.0 - - - - - - -
24/01:30pm 11.4 N 9 10 1018.1 - 0.0 - - - - - - -
24/01:00pm 12.2 N 8 9 1018.3 - 0.0 - - - - - - -
24/12:30pm 11.6 N 8 9 1018.7 - 0.0 - - - - - - -
24/12:00pm 11.8 N 8 9 1019.1 - 0.0 - - - - - - -
24/11:30am 11.3 N 7 8 1019.5 - 0.0 - - - - - - -
24/11:00am 10.3 N 6 7 1020.0 - 0.0 - - - - - - -
24/10:30am 9.6 N 6 7 1020.2 - 0.0 - - - - - - -
24/10:00am 9.3 N 6 7 1020.3 - 0.0 - - - - - - -
24/09:30am 9.1 N 6 7 1020.1 - 0.0 - - - - - - -
24/09:00am 8.3 N 6 7 1020.1 - 0.0 - - - - - - -
24/08:30am 8.1 N 4 6 1019.8 - 0.0 - - - - - - -
24/08:00am 7.6 N 6 7 1019.7 - 0.0 - - - - - - -
24/07:30am 7.8 N 5 6 1019.7 - 0.0 - - - - - - -
24/07:00am 7.5 N 6 7 1019.7 - 0.0 - - - - - - -
24/06:30am 7.6 N 3 4 1019.6 - 0.0 - - - - - - -
24/06:00am 7.6 N 2 3 1019.5 - 0.0 - - - - - - -
24/05:30am 7.7 NW 1 2 1019.5 - 0.0 - - - - - - -
24/05:00am 7.6 WNW 2 4 1019.5 - 0.0 - - - - - - -
24/04:30am 7.6 WNW 3 4 1019.5 - 0.0 - - - - - - -
24/04:00am 7.9 NNW 3 4 1019.4 - 0.0 - - - - - - -
24/03:30am 7.9 NNW 3 3 1019.4 - 0.0 - - - - - - -
24/03:00am 7.8 NW 4 5 1019.6 - 0.0 - - - - - - -
24/02:30am 7.5 NW 3 4 1019.8 - 0.0 - - - - - - -
24/02:00am 7.6 NNW 5 6 1019.8 - 0.0 - - - - - - -
24/01:30am 7.3 NW 4 5 1019.8 - 0.0 - - - - - - -
24/01:00am 8.1 NNW 2 4 1020.0 - 0.0 - - - - - - -
24/12:30am 7.3 WNW 4 5 1020.2 - 0.0 - - - - - - -
24/12:00am 7.8 NW 6 6 1020.5 - 0.0 - - - - - - -
 
Date/Time
EST
Temp

°C
Wind Pressure Rain
since 9am
mm
Weather Cloud Vis
km
Sea
Height
m
Swell
Dir
 
Speed
knots
Gust
knots
hPa Trend Height
m
Period
s
Dir
23/11:30pm 8.2 NW 5 6 1020.7 - 0.0 - - - - - - -
23/11:00pm 7.7 W 4 5 1021.0 - 0.0 - - - - - - -
23/10:30pm 8.6 WNW 4 5 1021.0 - 0.0 - - - - - - -
23/10:00pm 8.2 WNW 5 6 1021.3 - 0.0 - - - - - - -
23/09:30pm 8.6 NW 1 2 1021.4 - 0.0 - - - - - - -
23/09:00pm 8.8 WNW 1 3 1021.6 - 0.0 - - - - - - -
23/08:30pm 9.2 N 2 3 1021.5 - 0.0 - - - - - - -
23/08:00pm 9.3 WNW 3 4 1021.5 - 0.0 - - - - - - -
23/07:30pm 9.3 N 2 3 1021.5 - 0.0 - - - - - - -
23/07:00pm 9.0 NE 4 4 1021.4 - 0.0 - - - - - - -
23/06:30pm 9.3 NNE 4 5 1021.2 - 0.0 - - - - - - -
23/06:00pm 8.9 NNE 5 6 1021.3 - 0.0 - - - - - - -
23/05:30pm 10.1 NNE 3 4 1021.3 - 0.0 - - - - - - -
23/05:00pm 11.0 N 4 5 1021.2 - 0.0 - - - - - - -
23/04:30pm 11.5 N 2 4 1020.9 - 0.0 - - - - - - -
23/04:00pm 12.6 CALM 0 2 1021.0 - 0.0 - - - - - - -
23/03:30pm 12.8 W 3 6 1021.0 - 0.0 - - - - - - -
23/03:00pm 12.6 ESE 4 6 1021.0 - 0.0 - - - - - - -
23/02:30pm 13.1 E 5 7 1020.9 - 0.0 - - - - - - -
23/02:00pm 12.7 E 5 7 1021.1 - 0.0 - - - - - - -
23/01:30pm 12.3 SE 3 5 1021.4 - 0.0 - - - - - - -
23/01:00pm 12.7 S 3 4 1022.0 - 0.0 - - - - - - -
23/12:30pm 12.4 SSW 2 3 1022.2 - 0.0 - - - - - - -
23/12:00pm 12.1 SW 1 2 1022.7 - 0.0 - - - - - - -
23/11:30am 11.3 SW 2 3 1023.1 - 0.0 - - - - - - -
23/11:00am 11.3 WSW 1 2 1023.8 - 0.0 - - - - - - -
23/10:30am 11.1 W 2 3 1023.8 - 0.0 - - - - - - -
23/10:00am 10.1 NW 4 5 1024.0 - 0.0 - - - - - - -
23/09:30am 10.3 NW 2 3 1023.9 - 0.0 - - - - - - -
23/09:00am 10.1 NW 4 5 1024.0 - 0.2 - - - - - - -
23/08:30am 9.5 NW 5 5 1023.8 - 0.2 - - - - - - -
23/08:00am 9.0 WNW 6 7 1023.8 - 0.2 - - - - - - -
23/07:30am 8.9 WNW 6 7 1023.7 - 0.2 - - - - - - -
23/07:00am 9.3 WNW 3 5 1023.7 - 0.2 - - - - - - -
23/06:30am 9.3 N 3 5 1023.3 - 0.2 - - - - - - -
23/06:00am 9.2 NNW 4 4 1023.4 - 0.2 - - - - - - -
23/05:30am 9.3 NW 3 4 1023.2 - 0.2 - - - - - - -
23/05:00am 9.6 N 2 3 1023.4 - 0.2 - - - - - - -
23/04:30am 9.6 N 5 5 1023.4 - 0.2 - - - - - - -
23/04:00am 9.4 N 5 6 1023.3 - 0.2 - - - - - - -
23/03:30am 9.4 WNW 4 5 1023.2 - 0.2 - - - - - - -
23/03:00am 9.4 NW 3 3 1023.4 - 0.2 - - - - - - -
23/02:30am 9.3 CALM 0 1 1023.4 - 0.2 - - - - - - -
23/02:00am 8.7 NNE 2 4 1023.7 - 0.2 - - - - - - -
23/01:30am 9.5 NNW 3 4 1023.4 - 0.2 - - - - - - -
23/01:00am 9.7 CALM 0 0 1023.6 - 0.2 - - - - - - -
23/12:30am 9.6 N 2 3 1023.7 - 0.2 - - - - - - -
23/12:00am 9.0 N 3 5 1023.9 - 0.2 - - - - - - -
 
Date/Time
EST
Temp

°C
Wind Pressure Rain
since 9am
mm
Weather Cloud Vis
km
Sea
Height
m
Swell
Dir
 
Speed
knots
Gust
knots
hPa Trend Height
m
Period
s
Dir
22/11:30pm 9.4 NNW 3 4 1024.0 - 0.2 - - - - - - -
22/11:00pm 8.9 NW 4 5 1024.3 - 0.2 - - - - - - -
22/10:30pm 8.7 N 3 4 1024.2 - 0.2 - - - - - - -
22/10:00pm 8.6 NNW 3 3 1024.3 - 0.2 - - - - - - -
22/09:30pm 7.9 WNW 3 4 1024.2 - 0.2 - - - - - - -
22/09:00pm 8.9 NNW 3 4 1024.2 - 0.2 - - - - - - -
22/08:30pm 8.6 NW 3 3 1024.1 - 0.2 - - - - - - -
22/08:00pm 9.0 NW 3 4 1024.2 - 0.2 - - - - - - -
22/07:30pm 8.8 NW 3 4 1024.1 - 0.2 - - - - - - -
22/07:00pm 8.9 NW 5 6 1024.4 - 0.2 - - - - - - -
22/06:30pm 9.5 WNW 3 4 1024.2 - 0.2 - - - - - - -
22/06:00pm 9.6 NW 6 7 1024.1 - 0.2 Recent precip. - - - - - -
22/05:30pm 10.3 CALM 0 2 1023.9 - 0.0 - - - - - - -
22/05:00pm 10.2 SE 1 2 1023.6 - 0.0 - - - - - - -
22/04:30pm 10.6 SSE 1 2 1023.5 - 0.0 - - - - - - -
22/04:00pm 10.7 S 2 3 1023.6 - 0.0 - - - - - - -
22/03:30pm 11.3 SSW 3 3 1023.5 - 0.0 - - - - - - -
22/03:00pm 11.4 S 4 5 1023.5 - 0.0 - - - - - - -
22/02:30pm 11.7 S 2 2 1023.3 - 0.0 - - - - - - -
22/02:00pm 11.3 SSE 2 3 1023.5 - 0.0 - - - - - - -
22/01:30pm 10.2 S 3 4 1023.6 - 0.0 - - - - - - -
22/01:00pm 10.2 SSW 5 6 1024.1 - 0.0 - - - - - - -
22/12:30pm 10.6 WSW 2 3 1024.4 - 0.0 - - - - - - -
22/12:00pm 10.6 N 3 4 1024.9 - 0.0 - - - - - - -
22/11:30am 10.7 NNW 2 4 1025.2 - 0.0 - - - - - - -
22/11:00am 10.3 N 3 4 1025.5 - 0.0 - - - - - - -
22/10:30am 9.1 NNE 3 4 1025.6 - 0.0 - - - - - - -
22/10:00am 8.5 W 1 2 1025.8 - 0.0 - - - - - - -
22/09:30am 7.9 NW 2 5 1025.9 - 0.0 - - - - - - -
22/09:00am 8.0 W 2 3 1026.2 - 0.0 - - - - - - -
22/08:30am 7.2 WNW 2 3 1025.9 - 0.0 - - - - - - -
22/08:00am 6.2 WSW 4 5 1025.6 - 0.0 - - - - - - -
22/07:30am 6.3 NW 3 4 1025.1 - 0.0 - - - - - - -
22/07:00am 5.7 WNW 4 5 1025.0 - 0.0 - - - - - - -
22/06:30am 5.8 NW 5 6 1024.6 - 0.0 - - - - - - -
22/06:00am 5.8 NW 5 6 1024.8 - 0.0 - - - - - - -
22/05:30am 6.3 WNW 5 6 1024.5 - 0.0 - - - - - - -
22/05:00am 6.6 WNW 4 5 1024.7 - 0.0 - - - - - - -
22/04:30am 6.6 WNW 4 5 1024.5 - 0.0 - - - - - - -
22/04:00am 7.2 W 3 4 1024.7 - 0.0 - - - - - - -
22/03:30am 6.5 WNW 5 6 1024.6 - 0.0 - - - - - - -
22/03:00am 6.6 WNW 7 7 1024.9 - 0.0 - - - - - - -
22/02:30am 6.6 WNW 7 10 1025.0 - 0.0 - - - - - - -
22/02:00am 6.8 WNW 5 7 1025.3 - 0.0 - - - - - - -
22/01:30am 7.0 W 7 8 1025.2 - 0.0 - - - - - - -
22/01:00am 7.1 WNW 7 8 1025.2 - 0.0 - - - - - - -
22/12:30am 6.8 NW 2 6 1025.2 - 0.0 - - - - - - -
22/12:00am 7.5 N 2 4 1025.5 - 0.0 - - - - - - -
 
Date/Time
EST
Temp

°C
Wind Pressure Rain
since 9am
mm
Weather Cloud Vis
km
Sea
Height
m
Swell
Dir
 
Speed
knots
Gust
knots
hPa Trend Height
m
Period
s
Dir
21/11:30pm 7.3 CALM 0 0 1025.5 - 0.0 - - - - - - -
21/11:00pm 7.6 CALM 0 0 1025.6 - 0.0 - - - - - - -
21/10:30pm 7.8 NW 2 2 1025.6 - 0.0 - - - - - - -
21/10:00pm 7.7 NNW 2 2 1025.7 - 0.0 - - - - - - -
21/09:30pm 7.2 N 2 2 1025.7 - 0.0 - - - - - - -
21/09:00pm 8.3 WNW 2 3 1025.8 - 0.0 - - - - - - -

Other Formats:

Comma delimited format used in spreadsheet applications
http://www.bom.gov.au/fwo/IDT60701/IDT60701.95988.axf

JavaScript Object Notation format (JSON) in row-major order
http://www.bom.gov.au/fwo/IDT60701/IDT60701.95988.json